sensor_id;sensor_type;location;lat;lon;timestamp;P1;durP1;ratioP1;P2;durP2;ratioP2
36137;SDS011;67787;50.074;21.904;2023-03-01T00:01:35;174.80;;;88.40;;
36137;SDS011;67787;50.074;21.904;2023-03-01T00:04:03;178.50;;;88.90;;
36137;SDS011;67787;50.074;21.904;2023-03-01T00:06:32;163.80;;;85.30;;
36137;SDS011;67787;50.074;21.904;2023-03-01T00:09:00;183.00;;;94.60;;
36137;SDS011;67787;50.074;21.904;2023-03-01T00:11:28;185.50;;;92.70;;
36137;SDS011;67787;50.074;21.904;2023-03-01T00:13:59;216.70;;;104.70;;
36137;SDS011;67787;50.074;21.904;2023-03-01T00:16:30;220.10;;;114.10;;
36137;SDS011;67787;50.074;21.904;2023-03-01T00:19:03;194.80;;;99.90;;
36137;SDS011;67787;50.074;21.904;2023-03-01T00:21:31;192.70;;;99.50;;
36137;SDS011;67787;50.074;21.904;2023-03-01T00:23:59;189.00;;;97.30;;
36137;SDS011;67787;50.074;21.904;2023-03-01T00:26:27;186.40;;;94.80;;
36137;SDS011;67787;50.074;21.904;2023-03-01T00:28:57;175.90;;;90.20;;
36137;SDS011;67787;50.074;21.904;2023-03-01T00:31:27;160.60;;;81.70;;
36137;SDS011;67787;50.074;21.904;2023-03-01T00:33:58;154.30;;;82.40;;
36137;SDS011;67787;50.074;21.904;2023-03-01T00:36:29;174.30;;;89.10;;
36137;SDS011;67787;50.074;21.904;2023-03-01T00:39:03;178.50;;;88.30;;
36137;SDS011;67787;50.074;21.904;2023-03-01T00:41:33;174.50;;;93.60;;
36137;SDS011;67787;50.074;21.904;2023-03-01T00:44:02;189.10;;;94.70;;
36137;SDS011;67787;50.074;21.904;2023-03-01T00:46:30;171.90;;;87.50;;
36137;SDS011;67787;50.074;21.904;2023-03-01T00:48:59;181.70;;;90.90;;
36137;SDS011;67787;50.074;21.904;2023-03-01T00:51:29;164.40;;;81.70;;
36137;SDS011;67787;50.074;21.904;2023-03-01T00:53:59;159.60;;;83.80;;
36137;SDS011;67787;50.074;21.904;2023-03-01T00:56:29;175.30;;;90.60;;
36137;SDS011;67787;50.074;21.904;2023-03-01T00:58:59;171.20;;;91.60;;
36137;SDS011;67787;50.074;21.904;2023-03-01T01:01:28;151.60;;;83.30;;
36137;SDS011;67787;50.074;21.904;2023-03-01T01:03:59;167.90;;;87.00;;
36137;SDS011;67787;50.074;21.904;2023-03-01T01:06:29;170.20;;;86.20;;
36137;SDS011;67787;50.074;21.904;2023-03-01T01:09:03;168.40;;;87.20;;
36137;SDS011;67787;50.074;21.904;2023-03-01T01:11:34;154.50;;;82.30;;
36137;SDS011;67787;50.074;21.904;2023-03-01T01:14:03;173.70;;;88.90;;
36137;SDS011;67787;50.074;21.904;2023-03-01T01:16:31;172.40;;;86.10;;
36137;SDS011;67787;50.074;21.904;2023-03-01T01:19:00;155.20;;;80.40;;
36137;SDS011;67787;50.074;21.904;2023-03-01T01:21:28;162.60;;;85.30;;
36137;SDS011;67787;50.074;21.904;2023-03-01T01:23:55;173.10;;;87.80;;
36137;SDS011;67787;50.074;21.904;2023-03-01T01:26:25;171.40;;;86.10;;
36137;SDS011;67787;50.074;21.904;2023-03-01T01:28:56;176.80;;;87.10;;
36137;SDS011;67787;50.074;21.904;2023-03-01T01:31:25;165.50;;;81.50;;
36137;SDS011;67787;50.074;21.904;2023-03-01T01:33:54;157.10;;;80.70;;
36137;SDS011;67787;50.074;21.904;2023-03-01T01:36:22;158.40;;;81.60;;
36137;SDS011;67787;50.074;21.904;2023-03-01T01:38:51;145.20;;;78.30;;
36137;SDS011;67787;50.074;21.904;2023-03-01T01:41:19;134.50;;;67.70;;
36137;SDS011;67787;50.074;21.904;2023-03-01T01:43:49;150.00;;;76.60;;
36137;SDS011;67787;50.074;21.904;2023-03-01T01:49:37;155.90;;;78.30;;
36137;SDS011;67787;50.074;21.904;2023-03-01T01:52:09;169.20;;;83.90;;
36137;SDS011;67787;50.074;21.904;2023-03-01T01:57:11;144.40;;;71.50;;
36137;SDS011;67787;50.074;21.904;2023-03-01T01:59:45;147.80;;;70.10;;
36137;SDS011;67787;50.074;21.904;2023-03-01T02:02:18;161.50;;;76.00;;
36137;SDS011;67787;50.074;21.904;2023-03-01T02:04:47;161.20;;;77.40;;
36137;SDS011;67787;50.074;21.904;2023-03-01T02:07:18;159.80;;;80.60;;
36137;SDS011;67787;50.074;21.904;2023-03-01T02:09:49;160.00;;;78.30;;
36137;SDS011;67787;50.074;21.904;2023-03-01T02:12:21;155.50;;;80.20;;
36137;SDS011;67787;50.074;21.904;2023-03-01T02:14:51;156.10;;;75.10;;
36137;SDS011;67787;50.074;21.904;2023-03-01T02:17:19;148.00;;;75.00;;
36137;SDS011;67787;50.074;21.904;2023-03-01T02:22:51;137.30;;;68.30;;
36137;SDS011;67787;50.074;21.904;2023-03-01T02:25:35;143.40;;;69.40;;
36137;SDS011;67787;50.074;21.904;2023-03-01T02:33:34;118.00;;;62.70;;
36137;SDS011;67787;50.074;21.904;2023-03-01T02:36:07;149.40;;;74.90;;
36137;SDS011;67787;50.074;21.904;2023-03-01T02:38:39;158.20;;;75.00;;
36137;SDS011;67787;50.074;21.904;2023-03-01T02:41:08;153.20;;;72.20;;
36137;SDS011;67787;50.074;21.904;2023-03-01T02:43:40;132.70;;;69.00;;
36137;SDS011;67787;50.074;21.904;2023-03-01T02:46:16;131.80;;;64.20;;
36137;SDS011;67787;50.074;21.904;2023-03-01T02:48:50;122.40;;;62.70;;
36137;SDS011;67787;50.074;21.904;2023-03-01T02:56:56;119.10;;;61.20;;
36137;SDS011;67787;50.074;21.904;2023-03-01T02:59:27;124.40;;;61.00;;
36137;SDS011;67787;50.074;21.904;2023-03-01T03:01:58;132.80;;;67.80;;
36137;SDS011;67787;50.074;21.904;2023-03-01T03:04:28;133.10;;;69.50;;
36137;SDS011;67787;50.074;21.904;2023-03-01T03:06:56;132.40;;;68.90;;
36137;SDS011;67787;50.074;21.904;2023-03-01T03:09:23;135.80;;;72.10;;
36137;SDS011;67787;50.074;21.904;2023-03-01T03:11:52;130.60;;;68.60;;
36137;SDS011;67787;50.074;21.904;2023-03-01T03:14:20;138.10;;;71.60;;
36137;SDS011;67787;50.074;21.904;2023-03-01T03:16:49;135.40;;;71.70;;
36137;SDS011;67787;50.074;21.904;2023-03-01T03:19:18;137.30;;;68.90;;
36137;SDS011;67787;50.074;21.904;2023-03-01T03:21:46;126.20;;;66.60;;
36137;SDS011;67787;50.074;21.904;2023-03-01T03:24:14;130.30;;;64.40;;
36137;SDS011;67787;50.074;21.904;2023-03-01T03:26:42;123.20;;;63.00;;
36137;SDS011;67787;50.074;21.904;2023-03-01T03:29:11;117.30;;;59.80;;
36137;SDS011;67787;50.074;21.904;2023-03-01T03:31:39;117.40;;;58.00;;
36137;SDS011;67787;50.074;21.904;2023-03-01T03:34:07;95.70;;;49.60;;
36137;SDS011;67787;50.074;21.904;2023-03-01T03:36:35;100.80;;;49.80;;
36137;SDS011;67787;50.074;21.904;2023-03-01T03:39:02;86.70;;;44.70;;
36137;SDS011;67787;50.074;21.904;2023-03-01T03:41:31;98.10;;;49.80;;
36137;SDS011;67787;50.074;21.904;2023-03-01T03:44:03;85.90;;;44.70;;
36137;SDS011;67787;50.074;21.904;2023-03-01T03:46:31;83.40;;;41.40;;
36137;SDS011;67787;50.074;21.904;2023-03-01T03:49:00;78.60;;;41.90;;
36137;SDS011;67787;50.074;21.904;2023-03-01T03:51:28;78.70;;;42.80;;
36137;SDS011;67787;50.074;21.904;2023-03-01T03:53:56;88.20;;;47.20;;
36137;SDS011;67787;50.074;21.904;2023-03-01T03:56:25;85.90;;;44.90;;
36137;SDS011;67787;50.074;21.904;2023-03-01T03:58:55;76.00;;;41.00;;
36137;SDS011;67787;50.074;21.904;2023-03-01T04:01:23;76.70;;;42.40;;
36137;SDS011;67787;50.074;21.904;2023-03-01T04:03:50;95.90;;;52.00;;
36137;SDS011;67787;50.074;21.904;2023-03-01T04:06:22;86.60;;;47.10;;
36137;SDS011;67787;50.074;21.904;2023-03-01T04:08:50;88.60;;;45.90;;
36137;SDS011;67787;50.074;21.904;2023-03-01T04:11:18;96.10;;;47.90;;
36137;SDS011;67787;50.074;21.904;2023-03-01T04:13:56;96.10;;;51.20;;
36137;SDS011;67787;50.074;21.904;2023-03-01T04:16:26;93.40;;;47.50;;
36137;SDS011;67787;50.074;21.904;2023-03-01T04:18:54;94.80;;;47.50;;
36137;SDS011;67787;50.074;21.904;2023-03-01T04:21:22;93.20;;;47.10;;
36137;SDS011;67787;50.074;21.904;2023-03-01T04:23:50;88.40;;;47.00;;
36137;SDS011;67787;50.074;21.904;2023-03-01T04:26:20;91.40;;;47.40;;
36137;SDS011;67787;50.074;21.904;2023-03-01T04:28:48;90.50;;;46.70;;
36137;SDS011;67787;50.074;21.904;2023-03-01T04:31:18;93.60;;;47.50;;
36137;SDS011;67787;50.074;21.904;2023-03-01T04:33:50;90.30;;;44.70;;
36137;SDS011;67787;50.074;21.904;2023-03-01T04:36:21;90.20;;;46.50;;
36137;SDS011;67787;50.074;21.904;2023-03-01T04:38:51;88.20;;;46.60;;
36137;SDS011;67787;50.074;21.904;2023-03-01T04:41:20;87.60;;;46.20;;
36137;SDS011;67787;50.074;21.904;2023-03-01T04:43:50;83.50;;;44.50;;
36137;SDS011;67787;50.074;21.904;2023-03-01T04:46:19;80.80;;;39.80;;
36137;SDS011;67787;50.074;21.904;2023-03-01T04:48:48;89.20;;;47.00;;
36137;SDS011;67787;50.074;21.904;2023-03-01T04:51:16;106.20;;;55.50;;
36137;SDS011;67787;50.074;21.904;2023-03-01T04:53:45;104.10;;;54.00;;
36137;SDS011;67787;50.074;21.904;2023-03-01T04:56:14;111.10;;;56.30;;
36137;SDS011;67787;50.074;21.904;2023-03-01T04:58:43;117.70;;;62.60;;
36137;SDS011;67787;50.074;21.904;2023-03-01T05:01:13;114.60;;;62.80;;
36137;SDS011;67787;50.074;21.904;2023-03-01T05:06:15;94.00;;;52.70;;
36137;SDS011;67787;50.074;21.904;2023-03-01T05:08:47;92.40;;;51.20;;
36137;SDS011;67787;50.074;21.904;2023-03-01T05:11:15;106.50;;;56.10;;
36137;SDS011;67787;50.074;21.904;2023-03-01T05:13:43;115.90;;;60.10;;
36137;SDS011;67787;50.074;21.904;2023-03-01T05:16:11;116.20;;;61.40;;
36137;SDS011;67787;50.074;21.904;2023-03-01T05:18:40;125.80;;;65.30;;
36137;SDS011;67787;50.074;21.904;2023-03-01T05:21:09;119.30;;;66.20;;
36137;SDS011;67787;50.074;21.904;2023-03-01T05:23:39;135.70;;;72.20;;
36137;SDS011;67787;50.074;21.904;2023-03-01T05:26:07;127.20;;;67.80;;
36137;SDS011;67787;50.074;21.904;2023-03-01T05:28:54;117.60;;;62.40;;
36137;SDS011;67787;50.074;21.904;2023-03-01T05:31:27;120.10;;;60.40;;
36137;SDS011;67787;50.074;21.904;2023-03-01T05:33:56;125.30;;;65.30;;
36137;SDS011;67787;50.074;21.904;2023-03-01T05:36:23;122.10;;;62.70;;
36137;SDS011;67787;50.074;21.904;2023-03-01T05:38:51;128.80;;;66.50;;
36137;SDS011;67787;50.074;21.904;2023-03-01T05:41:19;122.50;;;63.00;;
36137;SDS011;67787;50.074;21.904;2023-03-01T05:43:47;127.70;;;69.10;;
36137;SDS011;67787;50.074;21.904;2023-03-01T05:46:15;120.40;;;64.20;;
36137;SDS011;67787;50.074;21.904;2023-03-01T05:48:44;116.70;;;61.20;;
36137;SDS011;67787;50.074;21.904;2023-03-01T05:51:12;111.90;;;63.10;;
36137;SDS011;67787;50.074;21.904;2023-03-01T05:53:40;112.60;;;59.80;;
36137;SDS011;67787;50.074;21.904;2023-03-01T05:56:07;119.20;;;61.80;;
36137;SDS011;67787;50.074;21.904;2023-03-01T05:58:35;122.10;;;62.60;;
36137;SDS011;67787;50.074;21.904;2023-03-01T06:01:03;119.10;;;61.40;;
36137;SDS011;67787;50.074;21.904;2023-03-01T06:03:32;114.80;;;57.10;;
36137;SDS011;67787;50.074;21.904;2023-03-01T06:06:00;107.60;;;56.00;;
36137;SDS011;67787;50.074;21.904;2023-03-01T06:08:28;113.90;;;58.50;;
36137;SDS011;67787;50.074;21.904;2023-03-01T06:10:56;107.50;;;58.90;;
36137;SDS011;67787;50.074;21.904;2023-03-01T06:13:23;115.70;;;57.50;;
36137;SDS011;67787;50.074;21.904;2023-03-01T06:15:52;114.10;;;57.70;;
36137;SDS011;67787;50.074;21.904;2023-03-01T06:18:21;100.50;;;54.60;;
36137;SDS011;67787;50.074;21.904;2023-03-01T06:20:52;106.40;;;55.80;;
36137;SDS011;67787;50.074;21.904;2023-03-01T06:23:22;96.80;;;52.40;;
36137;SDS011;67787;50.074;21.904;2023-03-01T06:25:50;95.20;;;50.40;;
36137;SDS011;67787;50.074;21.904;2023-03-01T06:28:18;98.40;;;52.10;;
36137;SDS011;67787;50.074;21.904;2023-03-01T06:30:46;92.10;;;51.00;;
36137;SDS011;67787;50.074;21.904;2023-03-01T06:33:15;104.10;;;54.00;;
36137;SDS011;67787;50.074;21.904;2023-03-01T06:35:43;97.70;;;53.30;;
36137;SDS011;67787;50.074;21.904;2023-03-01T06:38:11;92.00;;;52.10;;
36137;SDS011;67787;50.074;21.904;2023-03-01T06:40:42;97.60;;;52.40;;
36137;SDS011;67787;50.074;21.904;2023-03-01T06:43:10;92.50;;;53.40;;
36137;SDS011;67787;50.074;21.904;2023-03-01T06:45:38;104.80;;;57.30;;
36137;SDS011;67787;50.074;21.904;2023-03-01T06:48:07;110.80;;;58.40;;
36137;SDS011;67787;50.074;21.904;2023-03-01T06:50:35;108.60;;;57.00;;
36137;SDS011;67787;50.074;21.904;2023-03-01T06:53:03;108.10;;;58.30;;
36137;SDS011;67787;50.074;21.904;2023-03-01T06:55:31;108.40;;;59.90;;
36137;SDS011;67787;50.074;21.904;2023-03-01T06:58:00;104.70;;;58.20;;
36137;SDS011;67787;50.074;21.904;2023-03-01T07:00:31;126.10;;;64.20;;
36137;SDS011;67787;50.074;21.904;2023-03-01T07:03:00;129.10;;;67.00;;
36137;SDS011;67787;50.074;21.904;2023-03-01T07:05:29;119.10;;;61.30;;
36137;SDS011;67787;50.074;21.904;2023-03-01T07:07:58;116.60;;;61.00;;
36137;SDS011;67787;50.074;21.904;2023-03-01T07:10:26;117.90;;;60.30;;
36137;SDS011;67787;50.074;21.904;2023-03-01T07:12:55;105.70;;;59.10;;
36137;SDS011;67787;50.074;21.904;2023-03-01T07:15:24;115.70;;;64.30;;
36137;SDS011;67787;50.074;21.904;2023-03-01T07:17:54;103.60;;;59.40;;
36137;SDS011;67787;50.074;21.904;2023-03-01T07:20:23;106.00;;;56.20;;
36137;SDS011;67787;50.074;21.904;2023-03-01T07:22:53;92.50;;;53.50;;
36137;SDS011;67787;50.074;21.904;2023-03-01T07:25:22;99.50;;;56.90;;
36137;SDS011;67787;50.074;21.904;2023-03-01T07:27:51;104.30;;;56.30;;
36137;SDS011;67787;50.074;21.904;2023-03-01T07:30:20;97.10;;;54.90;;
36137;SDS011;67787;50.074;21.904;2023-03-01T07:32:49;98.30;;;53.80;;
36137;SDS011;67787;50.074;21.904;2023-03-01T07:35:17;96.30;;;53.70;;
36137;SDS011;67787;50.074;21.904;2023-03-01T07:37:45;94.60;;;53.70;;
36137;SDS011;67787;50.074;21.904;2023-03-01T07:40:13;90.60;;;51.40;;
36137;SDS011;67787;50.074;21.904;2023-03-01T07:42:41;84.50;;;48.60;;
36137;SDS011;67787;50.074;21.904;2023-03-01T07:45:10;92.10;;;51.20;;
36137;SDS011;67787;50.074;21.904;2023-03-01T07:47:38;90.40;;;49.00;;
36137;SDS011;67787;50.074;21.904;2023-03-01T07:50:07;85.90;;;48.10;;
36137;SDS011;67787;50.074;21.904;2023-03-01T07:52:35;85.50;;;46.50;;
36137;SDS011;67787;50.074;21.904;2023-03-01T07:55:04;85.10;;;47.50;;
36137;SDS011;67787;50.074;21.904;2023-03-01T07:57:33;80.70;;;45.30;;
36137;SDS011;67787;50.074;21.904;2023-03-01T08:00:02;90.40;;;51.80;;
36137;SDS011;67787;50.074;21.904;2023-03-01T08:02:30;84.90;;;47.30;;
36137;SDS011;67787;50.074;21.904;2023-03-01T08:04:58;79.90;;;43.80;;
36137;SDS011;67787;50.074;21.904;2023-03-01T08:07:27;72.10;;;41.70;;
36137;SDS011;67787;50.074;21.904;2023-03-01T08:09:55;77.80;;;44.10;;
36137;SDS011;67787;50.074;21.904;2023-03-01T08:12:23;72.80;;;42.60;;
36137;SDS011;67787;50.074;21.904;2023-03-01T08:14:51;73.30;;;41.30;;
36137;SDS011;67787;50.074;21.904;2023-03-01T08:17:19;59.70;;;32.30;;
36137;SDS011;67787;50.074;21.904;2023-03-01T08:19:47;66.10;;;35.70;;
36137;SDS011;67787;50.074;21.904;2023-03-01T08:22:16;63.10;;;33.70;;
36137;SDS011;67787;50.074;21.904;2023-03-01T08:24:44;55.40;;;29.90;;
36137;SDS011;67787;50.074;21.904;2023-03-01T08:27:12;51.20;;;29.30;;
36137;SDS011;67787;50.074;21.904;2023-03-01T08:29:40;54.00;;;29.10;;
36137;SDS011;67787;50.074;21.904;2023-03-01T08:32:08;47.20;;;24.50;;
36137;SDS011;67787;50.074;21.904;2023-03-01T08:34:36;50.70;;;26.40;;
36137;SDS011;67787;50.074;21.904;2023-03-01T08:37:07;50.00;;;27.60;;
36137;SDS011;67787;50.074;21.904;2023-03-01T08:39:35;50.40;;;26.80;;
36137;SDS011;67787;50.074;21.904;2023-03-01T08:42:03;74.70;;;33.80;;
36137;SDS011;67787;50.074;21.904;2023-03-01T08:44:31;57.10;;;30.30;;
36137;SDS011;67787;50.074;21.904;2023-03-01T08:46:58;56.80;;;30.80;;
36137;SDS011;67787;50.074;21.904;2023-03-01T08:49:27;53.80;;;30.60;;
36137;SDS011;67787;50.074;21.904;2023-03-01T08:51:56;60.10;;;31.70;;
36137;SDS011;67787;50.074;21.904;2023-03-01T08:54:25;58.40;;;31.50;;
36137;SDS011;67787;50.074;21.904;2023-03-01T08:56:53;55.70;;;29.60;;
36137;SDS011;67787;50.074;21.904;2023-03-01T08:59:21;56.90;;;31.90;;
36137;SDS011;67787;50.074;21.904;2023-03-01T09:01:49;58.10;;;30.50;;
36137;SDS011;67787;50.074;21.904;2023-03-01T09:04:17;61.80;;;33.00;;
36137;SDS011;67787;50.074;21.904;2023-03-01T09:06:46;54.40;;;30.80;;
36137;SDS011;67787;50.074;21.904;2023-03-01T09:09:15;56.20;;;31.90;;
36137;SDS011;67787;50.074;21.904;2023-03-01T09:11:44;55.20;;;30.70;;
36137;SDS011;67787;50.074;21.904;2023-03-01T09:14:14;59.20;;;32.20;;
36137;SDS011;67787;50.074;21.904;2023-03-01T09:16:42;89.00;;;42.50;;
36137;SDS011;67787;50.074;21.904;2023-03-01T09:19:11;51.00;;;29.70;;
36137;SDS011;67787;50.074;21.904;2023-03-01T09:21:40;56.50;;;30.30;;
36137;SDS011;67787;50.074;21.904;2023-03-01T09:24:11;53.80;;;27.40;;
36137;SDS011;67787;50.074;21.904;2023-03-01T09:26:41;45.30;;;24.30;;
36137;SDS011;67787;50.074;21.904;2023-03-01T09:29:09;49.30;;;25.60;;
36137;SDS011;67787;50.074;21.904;2023-03-01T09:31:38;39.10;;;20.30;;
36137;SDS011;67787;50.074;21.904;2023-03-01T09:34:06;38.70;;;22.00;;
36137;SDS011;67787;50.074;21.904;2023-03-01T09:36:35;44.10;;;24.20;;
36137;SDS011;67787;50.074;21.904;2023-03-01T09:39:03;44.90;;;23.00;;
36137;SDS011;67787;50.074;21.904;2023-03-01T09:47:00;48.50;;;24.70;;
36137;SDS011;67787;50.074;21.904;2023-03-01T09:49:31;49.00;;;26.80;;
36137;SDS011;67787;50.074;21.904;2023-03-01T09:52:04;44.40;;;23.60;;
36137;SDS011;67787;50.074;21.904;2023-03-01T09:54:46;46.60;;;25.30;;
36137;SDS011;67787;50.074;21.904;2023-03-01T10:04:55;54.10;;;26.60;;
36137;SDS011;67787;50.074;21.904;2023-03-01T10:10:48;43.10;;;23.70;;
36137;SDS011;67787;50.074;21.904;2023-03-01T10:13:19;47.90;;;25.60;;
36137;SDS011;67787;50.074;21.904;2023-03-01T10:15:56;43.70;;;23.70;;
36137;SDS011;67787;50.074;21.904;2023-03-01T10:18:30;41.40;;;22.40;;
36137;SDS011;67787;50.074;21.904;2023-03-01T10:21:02;43.70;;;23.10;;
36137;SDS011;67787;50.074;21.904;2023-03-01T10:23:40;42.60;;;22.10;;
36137;SDS011;67787;50.074;21.904;2023-03-01T10:29:02;45.10;;;22.90;;
36137;SDS011;67787;50.074;21.904;2023-03-01T10:31:48;46.50;;;24.10;;
36137;SDS011;67787;50.074;21.904;2023-03-01T10:34:25;34.40;;;18.80;;
36137;SDS011;67787;50.074;21.904;2023-03-01T10:36:58;44.70;;;22.30;;
36137;SDS011;67787;50.074;21.904;2023-03-01T10:39:36;43.60;;;23.50;;
36137;SDS011;67787;50.074;21.904;2023-03-01T10:42:05;39.80;;;20.90;;
36137;SDS011;67787;50.074;21.904;2023-03-01T10:44:50;39.80;;;20.20;;
36137;SDS011;67787;50.074;21.904;2023-03-01T10:47:22;43.90;;;24.10;;
36137;SDS011;67787;50.074;21.904;2023-03-01T10:50:00;47.60;;;24.90;;
36137;SDS011;67787;50.074;21.904;2023-03-01T10:52:35;42.50;;;23.60;;
36137;SDS011;67787;50.074;21.904;2023-03-01T10:57:40;42.40;;;21.80;;
36137;SDS011;67787;50.074;21.904;2023-03-01T11:02:41;42.30;;;22.50;;
36137;SDS011;67787;50.074;21.904;2023-03-01T11:07:50;43.10;;;24.30;;
36137;SDS011;67787;50.074;21.904;2023-03-01T11:10:29;43.00;;;23.40;;
36137;SDS011;67787;50.074;21.904;2023-03-01T11:13:06;45.40;;;24.80;;
36137;SDS011;67787;50.074;21.904;2023-03-01T11:16:03;40.50;;;21.30;;
36137;SDS011;67787;50.074;21.904;2023-03-01T11:18:40;44.80;;;23.80;;
36137;SDS011;67787;50.074;21.904;2023-03-01T11:21:15;41.60;;;22.00;;
36137;SDS011;67787;50.074;21.904;2023-03-01T11:23:43;42.10;;;21.20;;
36137;SDS011;67787;50.074;21.904;2023-03-01T11:26:14;36.50;;;18.60;;
36137;SDS011;67787;50.074;21.904;2023-03-01T11:28:45;40.80;;;21.00;;
36137;SDS011;67787;50.074;21.904;2023-03-01T11:31:19;38.50;;;20.40;;
36137;SDS011;67787;50.074;21.904;2023-03-01T11:33:54;40.40;;;21.20;;
36137;SDS011;67787;50.074;21.904;2023-03-01T11:36:35;41.30;;;21.50;;
36137;SDS011;67787;50.074;21.904;2023-03-01T11:42:15;44.60;;;23.70;;
36137;SDS011;67787;50.074;21.904;2023-03-01T11:44:48;40.00;;;21.80;;
36137;SDS011;67787;50.074;21.904;2023-03-01T11:50:12;41.50;;;21.30;;
36137;SDS011;67787;50.074;21.904;2023-03-01T11:56:43;41.30;;;21.40;;
36137;SDS011;67787;50.074;21.904;2023-03-01T12:07:01;43.10;;;22.00;;
36137;SDS011;67787;50.074;21.904;2023-03-01T12:34:57;29.90;;;15.20;;
36137;SDS011;67787;50.074;21.904;2023-03-01T12:43:21;29.50;;;13.60;;
36137;SDS011;67787;50.074;21.904;2023-03-01T12:45:53;27.50;;;13.10;;
36137;SDS011;67787;50.074;21.904;2023-03-01T12:51:05;30.10;;;14.50;;
36137;SDS011;67787;50.074;21.904;2023-03-01T12:53:39;27.70;;;14.00;;
36137;SDS011;67787;50.074;21.904;2023-03-01T12:56:12;28.80;;;13.90;;
36137;SDS011;67787;50.074;21.904;2023-03-01T13:01:39;33.40;;;17.70;;
36137;SDS011;67787;50.074;21.904;2023-03-01T13:04:48;32.10;;;14.10;;
36137;SDS011;67787;50.074;21.904;2023-03-01T13:07:37;25.20;;;12.40;;
36137;SDS011;67787;50.074;21.904;2023-03-01T13:10:26;28.30;;;14.70;;
36137;SDS011;67787;50.074;21.904;2023-03-01T13:15:26;27.60;;;13.70;;
36137;SDS011;67787;50.074;21.904;2023-03-01T13:17:57;25.10;;;11.60;;
36137;SDS011;67787;50.074;21.904;2023-03-01T13:20:34;25.70;;;11.70;;
36137;SDS011;67787;50.074;21.904;2023-03-01T13:31:05;28.00;;;12.80;;
36137;SDS011;67787;50.074;21.904;2023-03-01T13:33:48;27.10;;;12.70;;
36137;SDS011;67787;50.074;21.904;2023-03-01T13:46:59;30.30;;;15.00;;
36137;SDS011;67787;50.074;21.904;2023-03-01T13:49:48;24.80;;;11.30;;
36137;SDS011;67787;50.074;21.904;2023-03-01T13:52:31;48.30;;;22.30;;
36137;SDS011;67787;50.074;21.904;2023-03-01T13:55:00;54.10;;;24.60;;
36137;SDS011;67787;50.074;21.904;2023-03-01T13:57:35;59.10;;;22.20;;
36137;SDS011;67787;50.074;21.904;2023-03-01T14:00:24;29.20;;;12.10;;
36137;SDS011;67787;50.074;21.904;2023-03-01T14:03:03;81.60;;;27.70;;
36137;SDS011;67787;50.074;21.904;2023-03-01T14:05:33;60.20;;;22.60;;
36137;SDS011;67787;50.074;21.904;2023-03-01T14:08:04;34.30;;;14.40;;
36137;SDS011;67787;50.074;21.904;2023-03-01T14:10:49;30.70;;;12.90;;
36137;SDS011;67787;50.074;21.904;2023-03-01T14:13:35;25.20;;;11.80;;
36137;SDS011;67787;50.074;21.904;2023-03-01T14:18:55;26.40;;;12.30;;
36137;SDS011;67787;50.074;21.904;2023-03-01T14:21:33;26.80;;;11.90;;
36137;SDS011;67787;50.074;21.904;2023-03-01T14:24:02;27.70;;;14.40;;
36137;SDS011;67787;50.074;21.904;2023-03-01T14:26:31;26.50;;;12.90;;
36137;SDS011;67787;50.074;21.904;2023-03-01T14:29:03;28.70;;;13.20;;
36137;SDS011;67787;50.074;21.904;2023-03-01T14:31:36;31.30;;;14.80;;
36137;SDS011;67787;50.074;21.904;2023-03-01T14:34:20;32.20;;;13.90;;
36137;SDS011;67787;50.074;21.904;2023-03-01T14:36:49;31.20;;;13.30;;
36137;SDS011;67787;50.074;21.904;2023-03-01T14:39:19;41.90;;;18.10;;
36137;SDS011;67787;50.074;21.904;2023-03-01T14:41:51;61.00;;;23.50;;
36137;SDS011;67787;50.074;21.904;2023-03-01T14:44:23;49.00;;;23.10;;
36137;SDS011;67787;50.074;21.904;2023-03-01T14:46:53;46.10;;;20.80;;
36137;SDS011;67787;50.074;21.904;2023-03-01T14:49:24;39.70;;;18.20;;
36137;SDS011;67787;50.074;21.904;2023-03-01T14:52:04;39.20;;;18.60;;
36137;SDS011;67787;50.074;21.904;2023-03-01T14:54:41;29.80;;;14.40;;
36137;SDS011;67787;50.074;21.904;2023-03-01T14:57:23;45.00;;;24.20;;
36137;SDS011;67787;50.074;21.904;2023-03-01T14:59:53;64.30;;;34.50;;
36137;SDS011;67787;50.074;21.904;2023-03-01T15:02:25;65.50;;;27.60;;
36137;SDS011;67787;50.074;21.904;2023-03-01T15:04:56;33.40;;;15.60;;
36137;SDS011;67787;50.074;21.904;2023-03-01T15:07:33;33.60;;;14.30;;
36137;SDS011;67787;50.074;21.904;2023-03-01T17:52:56;368.00;;;198.80;;
36137;SDS011;67787;50.074;21.904;2023-03-01T17:55:25;336.00;;;183.80;;
36137;SDS011;67787;50.074;21.904;2023-03-01T17:57:53;329.60;;;172.10;;
36137;SDS011;67787;50.074;21.904;2023-03-01T18:00:21;319.50;;;163.60;;
36137;SDS011;67787;50.074;21.904;2023-03-01T18:02:49;303.10;;;166.20;;
36137;SDS011;67787;50.074;21.904;2023-03-01T18:05:17;278.00;;;145.60;;
36137;SDS011;67787;50.074;21.904;2023-03-01T18:07:45;258.40;;;134.70;;
36137;SDS011;67787;50.074;21.904;2023-03-01T18:10:14;253.40;;;134.80;;
36137;SDS011;67787;50.074;21.904;2023-03-01T18:12:41;248.90;;;126.70;;
36137;SDS011;67787;50.074;21.904;2023-03-01T18:15:10;235.00;;;122.00;;
36137;SDS011;67787;50.074;21.904;2023-03-01T18:17:39;239.40;;;124.70;;
36137;SDS011;67787;50.074;21.904;2023-03-01T18:20:08;243.30;;;124.40;;
36137;SDS011;67787;50.074;21.904;2023-03-01T18:22:37;257.00;;;129.90;;
36137;SDS011;67787;50.074;21.904;2023-03-01T18:25:15;320.20;;;170.30;;
36137;SDS011;67787;50.074;21.904;2023-03-01T18:27:49;272.40;;;134.40;;
36137;SDS011;67787;50.074;21.904;2023-03-01T18:30:20;265.80;;;131.10;;
36137;SDS011;67787;50.074;21.904;2023-03-01T18:32:48;251.60;;;123.10;;
36137;SDS011;67787;50.074;21.904;2023-03-01T18:35:25;246.70;;;124.30;;
36137;SDS011;67787;50.074;21.904;2023-03-01T18:37:53;244.70;;;118.90;;
36137;SDS011;67787;50.074;21.904;2023-03-01T18:40:21;235.00;;;116.90;;
36137;SDS011;67787;50.074;21.904;2023-03-01T18:42:48;245.50;;;123.20;;
36137;SDS011;67787;50.074;21.904;2023-03-01T18:45:20;233.80;;;119.00;;
36137;SDS011;67787;50.074;21.904;2023-03-01T18:47:48;239.80;;;117.70;;
36137;SDS011;67787;50.074;21.904;2023-03-01T18:50:17;241.20;;;121.10;;
36137;SDS011;67787;50.074;21.904;2023-03-01T18:52:46;225.40;;;117.10;;
36137;SDS011;67787;50.074;21.904;2023-03-01T18:55:14;223.10;;;113.30;;
36137;SDS011;67787;50.074;21.904;2023-03-01T18:57:42;222.40;;;111.80;;
36137;SDS011;67787;50.074;21.904;2023-03-01T19:00:12;217.90;;;108.30;;
36137;SDS011;67787;50.074;21.904;2023-03-01T19:02:43;225.40;;;112.30;;
36137;SDS011;67787;50.074;21.904;2023-03-01T19:05:13;205.40;;;102.30;;
36137;SDS011;67787;50.074;21.904;2023-03-01T19:07:43;201.40;;;101.90;;
36137;SDS011;67787;50.074;21.904;2023-03-01T19:10:11;203.00;;;103.00;;
36137;SDS011;67787;50.074;21.904;2023-03-01T19:12:42;191.00;;;97.10;;